Time;durP1;ratioP1;P1;durP2;ratioP2;P2;SDS_P1;SDS_P2;PMS_P1;PMS_P2;Temp;Humidity;BMP_temperature;BMP_pressure;BME280_temperature;BME280_humidity;BME280_pressure;Samples;Min_cycle;Max_cycle;Signal;HPM_P1;HPM_P2
2023/06/27 00:01:04;;;;;;;3.10;1.50;;;;;;;;;;10485137;28;20426;-76
2023/06/27 00:06:07;;;;;;;3.85;1.70;;;;;;;;;;10479984;28;20047;-77
2023/06/27 00:11:10;;;;;;;5.13;1.45;;;;;;;;;;10485925;28;20037;-77
2023/06/27 00:16:14;;;;;;;3.30;1.50;;;;;;;;;;10479919;28;20052;-77
2023/06/27 00:21:17;;;;;;;4.68;1.75;;;;;;;;;;10475942;28;20072;-77
2023/06/27 00:26:19;;;;;;;2.70;1.40;;;;;;;;;;10484212;28;20079;-77
2023/06/27 00:31:23;;;;;;;4.28;1.60;;;;;;;;;;10490791;28;20112;-76
2023/06/27 00:36:26;;;;;;;4.28;1.83;;;;;;;;;;10493017;28;20429;-77
2023/06/27 00:41:29;;;;;;;4.43;1.60;;;;;;;;;;10484258;28;20131;-77
2023/06/27 00:46:35;;;;;;;4.57;1.50;;;;;;;;;;10482747;28;20418;-76
2023/06/27 00:51:39;;;;;;;6.95;1.58;;;;;;;;;;10478023;28;20060;-76
2023/06/27 00:56:42;;;;;;;4.20;1.40;;;;;;;;;;10484601;28;20127;-76
2023/06/27 01:01:46;;;;;;;3.63;1.48;;;;;;;;;;10475463;28;20047;-77
2023/06/27 01:06:54;;;;;;;3.28;1.60;;;;;;;;;;10463440;28;20048;-76
2023/06/27 01:12:01;;;;;;;1.83;1.13;;;;;;;;;;10488645;28;20051;-76
2023/06/27 01:17:06;;;;;;;5.03;1.80;;;;;;;;;;10488598;28;20459;-76
2023/06/27 01:22:10;;;;;;;6.43;1.90;;;;;;;;;;10483156;28;20351;-77
2023/06/27 01:27:15;;;;;;;5.93;1.67;;;;;;;;;;10485544;28;20397;-78
2023/06/27 01:32:21;;;;;;;5.07;1.58;;;;;;;;;;10477927;28;20051;-77
2023/06/27 01:37:26;;;;;;;6.45;1.42;;;;;;;;;;10479168;28;20248;-77
2023/06/27 01:42:32;;;;;;;3.55;1.60;;;;;;;;;;10476794;28;20142;-77
2023/06/27 01:47:36;;;;;;;6.55;1.50;;;;;;;;;;10477622;28;20064;-77
2023/06/27 01:52:39;;;;;;;2.65;1.40;;;;;;;;;;10477400;28;20055;-77
2023/06/27 01:57:43;;;;;;;2.40;1.30;;;;;;;;;;10476801;28;20044;-77
2023/06/27 02:02:46;;;;;;;5.25;1.50;;;;;;;;;;10485514;28;20124;-77
2023/06/27 02:07:49;;;;;;;3.88;1.55;;;;;;;;;;10482605;28;22858;-76
2023/06/27 02:12:54;;;;;;;4.13;1.45;;;;;;;;;;10475182;28;20150;-77
2023/06/27 02:17:57;;;;;;;5.82;1.65;;;;;;;;;;10476030;28;20509;-76
2023/06/27 02:23:00;;;;;;;3.92;1.60;;;;;;;;;;10464835;28;20709;-76
2023/06/27 02:28:05;;;;;;;3.03;1.57;;;;;;;;;;10475530;28;20039;-77
2023/06/27 02:33:08;;;;;;;3.50;1.40;;;;;;;;;;10521340;28;20490;-77
2023/06/27 02:38:11;;;;;;;3.38;1.77;;;;;;;;;;10522808;28;20071;-77
2023/06/27 02:43:15;;;;;;;3.25;1.40;;;;;;;;;;10516617;28;20040;-77
2023/06/27 02:48:18;;;;;;;3.92;1.45;;;;;;;;;;10524496;28;20389;-78
2023/06/27 02:53:20;;;;;;;7.17;1.67;;;;;;;;;;10526135;28;20437;-77
2023/06/27 02:58:25;;;;;;;5.18;1.33;;;;;;;;;;10525003;28;20056;-75
2023/06/27 03:03:28;;;;;;;4.85;1.85;;;;;;;;;;10523431;28;20032;-75
2023/06/27 03:08:35;;;;;;;3.65;1.20;;;;;;;;;;10519004;28;20097;-75
2023/06/27 03:13:40;;;;;;;10.90;1.90;;;;;;;;;;10517532;28;20044;-75
2023/06/27 03:18:43;;;;;;;6.32;1.80;;;;;;;;;;10521327;28;20045;-75
2023/06/27 03:23:46;;;;;;;5.60;2.03;;;;;;;;;;10519168;28;20071;-75
2023/06/27 03:28:50;;;;;;;3.58;1.60;;;;;;;;;;10518500;28;20124;-75
2023/06/27 03:33:54;;;;;;;4.07;1.65;;;;;;;;;;10521177;28;20080;-76
2023/06/27 03:38:57;;;;;;;9.18;2.35;;;;;;;;;;10519121;28;20108;-76
2023/06/27 03:44:01;;;;;;;;;;;;;;;;;;10521789;28;20048;-76
2023/06/27 03:49:05;;;;;;;4.88;1.70;;;;;;;;;;10519047;28;19924;-77
2023/06/27 03:54:09;;;;;;;2.70;1.60;;;;;;;;;;10527983;28;20547;-77
2023/06/27 03:59:12;;;;;;;7.15;1.80;;;;;;;;;;10524608;28;20162;-77
2023/06/27 04:04:16;;;;;;;4.53;1.50;;;;;;;;;;10519407;28;20082;-77
2023/06/27 04:09:19;;;;;;;4.35;1.70;;;;;;;;;;10523957;28;20044;-77
2023/06/27 04:14:22;;;;;;;5.28;1.80;;;;;;;;;;10518789;28;20531;-77
2023/06/27 04:19:30;;;;;;;1.98;1.52;;;;;;;;;;10525198;28;20028;-77
2023/06/27 04:24:33;;;;;;;5.93;1.90;;;;;;;;;;10526462;28;20674;-76
2023/06/27 04:29:35;;;;;;;6.80;1.70;;;;;;;;;;10530106;28;20028;-77
2023/06/27 04:34:39;;;;;;;6.30;1.67;;;;;;;;;;10532553;28;20123;-76
2023/06/27 04:39:42;;;;;;;4.05;1.48;;;;;;;;;;10524824;28;20474;-76
2023/06/27 04:44:45;;;;;;;2.88;1.50;;;;;;;;;;10527836;28;20052;-76
2023/06/27 04:49:49;;;;;;;3.22;1.55;;;;;;;;;;10529496;28;20042;-77
2023/06/27 04:54:52;;;;;;;3.63;1.70;;;;;;;;;;10526927;28;20032;-76
2023/06/27 04:59:55;;;;;;;6.20;1.67;;;;;;;;;;10523330;28;20040;-77
2023/06/27 05:04:59;;;;;;;8.18;2.33;;;;;;;;;;10528478;28;20058;-78
2023/06/27 05:10:02;;;;;;;5.60;1.55;;;;;;;;;;10522626;28;20031;-78
2023/06/27 05:15:06;;;;;;;5.32;2.03;;;;;;;;;;10522994;28;20032;-78
2023/06/27 05:20:12;;;;;;;8.77;2.03;;;;;;;;;;10526397;28;20221;-77
2023/06/27 05:25:15;;;;;;;6.68;2.10;;;;;;;;;;10543546;27;20044;-77
2023/06/27 05:30:18;;;;;;;2.47;1.60;;;;;;;;;;10529629;28;20094;-77
2023/06/27 05:35:22;;;;;;;4.80;1.58;;;;;;;;;;10532092;28;20052;-76
2023/06/27 05:40:25;;;;;;;10.73;2.72;;;;;;;;;;10540184;28;20139;-77
2023/06/27 05:45:28;;;;;;;3.63;1.65;;;;;;;;;;10532044;28;20040;-76
2023/06/27 05:50:32;;;;;;;5.43;1.85;;;;;;;;;;10529002;28;20093;-77
2023/06/27 05:55:35;;;;;;;3.72;1.58;;;;;;;;;;10523841;28;20036;-75
2023/06/27 06:00:39;;;;;;;4.95;1.75;;;;;;;;;;10519365;28;20040;-74
2023/06/27 06:05:43;;;;;;;3.85;1.80;;;;;;;;;;10522548;28;20044;-75
2023/06/27 06:10:50;;;;;;;4.70;1.77;;;;;;;;;;10532843;28;20108;-74
2023/06/27 06:15:53;;;;;;;2.58;1.60;;;;;;;;;;10547191;28;20142;-74
2023/06/27 06:20:57;;;;;;;2.88;1.42;;;;;;;;;;10531703;28;20378;-74
2023/06/27 06:26:00;;;;;;;4.18;1.60;;;;;;;;;;10518556;28;20078;-74
2023/06/27 06:31:03;;;;;;;5.45;1.80;;;;;;;;;;10525587;28;20404;-74
2023/06/27 06:36:07;;;;;;;5.72;1.92;;;;;;;;;;10521183;28;20063;-74
2023/06/27 06:41:10;;;;;;;4.97;1.80;;;;;;;;;;10525433;28;20118;-75
2023/06/27 06:46:13;;;;;;;2.85;1.50;;;;;;;;;;10522973;28;20074;-75
2023/06/27 06:51:18;;;;;;;7.18;1.60;;;;;;;;;;10514929;28;20154;-74
2023/06/27 06:56:23;;;;;;;6.28;2.00;;;;;;;;;;10514347;28;20473;-75
2023/06/27 07:01:28;;;;;;;5.40;2.00;;;;;;;;;;10512760;28;20058;-75
2023/06/27 07:06:32;;;;;;;4.93;2.47;;;;;;;;;;10518531;28;20101;-75
2023/06/27 07:11:35;;;;;;;4.18;1.80;;;;;;;;;;10518522;28;20032;-75
2023/06/27 07:16:38;;;;;;;2.87;1.97;;;;;;;;;;10521265;28;20040;-75
2023/06/27 07:21:42;;;;;;;7.97;2.30;;;;;;;;;;10522886;28;20337;-74
2023/06/27 07:26:45;;;;;;;4.00;2.13;;;;;;;;;;10519101;28;20134;-75
2023/06/27 07:31:48;;;;;;;5.57;1.73;;;;;;;;;;10512951;28;20060;-75
2023/06/27 07:36:53;;;;;;;3.75;1.90;;;;;;;;;;10514380;28;20429;-75
2023/06/27 07:41:56;;;;;;;6.60;1.80;;;;;;;;;;10517639;28;20048;-76
2023/06/27 07:46:59;;;;;;;3.50;2.00;;;;;;;;;;10516829;28;20575;-75
2023/06/27 07:52:02;;;;;;;;;;;;;;;;;;10520977;28;20036;-75
2023/06/27 07:57:07;;;;;;;5.00;1.77;;;;;;;;;;10530785;28;19926;-75
2023/06/27 08:02:09;;;;;;;5.85;1.85;;;;;;;;;;10526842;28;20070;-76
2023/06/27 08:07:12;;;;;;;4.05;1.70;;;;;;;;;;10530107;28;20458;-75
2023/06/27 08:12:17;;;;;;;3.95;1.67;;;;;;;;;;10526384;28;20420;-76
2023/06/27 08:17:20;;;;;;;4.07;1.70;;;;;;;;;;10522807;28;20130;-76
2023/06/27 08:22:23;;;;;;;4.35;1.70;;;;;;;;;;10521873;28;20464;-76
2023/06/27 08:27:28;;;;;;;4.60;1.63;;;;;;;;;;10521738;28;20052;-76
2023/06/27 08:32:30;;;;;;;4.63;1.60;;;;;;;;;;10522819;28;20498;-76
2023/06/27 08:37:33;;;;;;;3.95;2.05;;;;;;;;;;10507573;28;20149;-75
2023/06/27 08:42:38;;;;;;;3.63;1.80;;;;;;;;;;10522459;28;20488;-76
2023/06/27 08:47:42;;;;;;;4.43;2.05;;;;;;;;;;10517308;28;20207;-76
2023/06/27 08:52:52;;;;;;;4.88;2.05;;;;;;;;;;10523409;28;20042;-76
2023/06/27 08:57:58;;;;;;;5.57;1.73;;;;;;;;;;10527263;28;20091;-76
2023/06/27 09:03:01;;;;;;;4.03;2.20;;;;;;;;;;10523241;28;20373;-77
2023/06/27 09:08:04;;;;;;;6.45;2.22;;;;;;;;;;10519559;28;20043;-76
2023/06/27 09:13:09;;;;;;;8.77;2.30;;;;;;;;;;10518870;28;20432;-77
2023/06/27 09:18:12;;;;;;;2.90;2.00;;;;;;;;;;10520887;28;20032;-77
2023/06/27 09:23:15;;;;;;;3.65;2.25;;;;;;;;;;10520841;28;20093;-78
2023/06/27 09:28:20;;;;;;;2.90;2.60;;;;;;;;;;10519599;28;20131;-77
2023/06/27 09:33:25;;;;;;;5.13;2.58;;;;;;;;;;10522528;28;20047;-77
2023/06/27 09:38:31;;;;;;;3.17;2.10;;;;;;;;;;10517395;28;20382;-77
2023/06/27 09:43:38;;;;;;;3.23;2.60;;;;;;;;;;10517936;28;20085;-76
2023/06/27 09:48:44;;;;;;;4.53;2.42;;;;;;;;;;10523984;28;20048;-78
2023/06/27 09:53:57;;;;;;;4.80;2.45;;;;;;;;;;10522349;28;20127;-76
2023/06/27 09:59:09;;;;;;;3.80;2.30;;;;;;;;;;10518905;28;20043;-77
2023/06/27 10:04:24;;;;;;;6.03;2.72;;;;;;;;;;10511779;28;20369;-77
2023/06/27 10:09:30;;;;;;;3.17;2.30;;;;;;;;;;10520553;28;20056;-77
2023/06/27 10:14:34;;;;;;;5.40;2.40;;;;;;;;;;10521017;28;20032;-76
2023/06/27 10:19:38;;;;;;;6.03;2.00;;;;;;;;;;10521527;28;20121;-77
2023/06/27 10:24:41;;;;;;;4.20;2.35;;;;;;;;;;10525286;28;20472;-81
2023/06/27 10:29:46;;;;;;;5.43;2.60;;;;;;;;;;10527915;28;20105;-77
2023/06/27 10:34:48;;;;;;;4.43;1.90;;;;;;;;;;10526465;28;20083;-75
2023/06/27 10:39:57;;;;;;;5.80;2.22;;;;;;;;;;10519329;28;20173;-76
2023/06/27 10:45:07;;;;;;;4.93;2.10;;;;;;;;;;10524833;28;20039;-76
2023/06/27 10:50:12;;;;;;;5.60;2.28;;;;;;;;;;10513388;28;20040;-76
2023/06/27 10:55:19;;;;;;;3.45;2.00;;;;;;;;;;10515430;28;20105;-76
2023/06/27 11:00:25;;;;;;;4.30;1.92;;;;;;;;;;10511639;28;20135;-76
2023/06/27 11:05:37;;;;;;;5.95;2.30;;;;;;;;;;10514220;28;20169;-76
2023/06/27 11:10:49;;;;;;;2.90;2.20;;;;;;;;;;10512809;28;20061;-76
2023/06/27 11:15:54;;;;;;;6.82;2.30;;;;;;;;;;10513500;28;20044;-77
2023/06/27 11:20:57;;;;;;;3.72;2.08;;;;;;;;;;10514010;28;20039;-76
2023/06/27 11:26:00;;;;;;;4.53;2.05;;;;;;;;;;10519191;28;20042;-76
2023/06/27 11:31:04;;;;;;;9.35;2.30;;;;;;;;;;10525530;28;20127;-77
2023/06/27 11:36:08;;;;;;;4.57;2.15;;;;;;;;;;10523200;28;20088;-77
2023/06/27 11:41:11;;;;;;;4.85;2.20;;;;;;;;;;10527295;28;20043;-77
2023/06/27 11:46:17;;;;;;;4.68;2.00;;;;;;;;;;10509794;28;20105;-76
2023/06/27 11:51:20;;;;;;;3.92;2.00;;;;;;;;;;10528364;28;20164;-76
2023/06/27 11:56:22;;;;;;;5.65;2.30;;;;;;;;;;10528608;28;20048;-76
2023/06/27 12:01:27;;;;;;;6.47;2.03;;;;;;;;;;10519464;28;20036;-77
2023/06/27 12:06:31;;;;;;;5.00;2.10;;;;;;;;;;10521783;28;20036;-75
2023/06/27 12:11:36;;;;;;;3.33;2.20;;;;;;;;;;10521209;28;20331;-75
2023/06/27 12:16:42;;;;;;;3.10;2.30;;;;;;;;;;10519872;28;20075;-76
2023/06/27 12:21:49;;;;;;;5.43;3.13;;;;;;;;;;10528254;28;20130;-76
2023/06/27 12:26:51;;;;;;;4.63;2.20;;;;;;;;;;10526783;28;20048;-76
2023/06/27 12:31:56;;;;;;;4.75;2.17;;;;;;;;;;10517486;28;20081;-75
2023/06/27 12:36:58;;;;;;;5.60;2.10;;;;;;;;;;10520632;28;20149;-75
2023/06/27 12:42:01;;;;;;;4.45;2.28;;;;;;;;;;10520732;28;20036;-77
2023/06/27 12:47:05;;;;;;;5.10;2.30;;;;;;;;;;10518632;28;20048;-76
2023/06/27 12:52:09;;;;;;;3.60;2.10;;;;;;;;;;10515635;28;20133;-76
2023/06/27 12:57:15;;;;;;;6.55;2.08;;;;;;;;;;10522387;28;20039;-75
2023/06/27 13:02:23;;;;;;;6.72;2.00;;;;;;;;;;10522953;28;20043;-75
2023/06/27 13:07:26;;;;;;;4.53;2.00;;;;;;;;;;10523081;28;20047;-75
2023/06/27 13:12:32;;;;;;;4.55;1.90;;;;;;;;;;10524504;28;20036;-75
2023/06/27 13:17:37;;;;;;;5.70;2.15;;;;;;;;;;10527271;28;20056;-75
2023/06/27 13:22:40;;;;;;;6.88;2.63;;;;;;;;;;10522856;28;20037;-75
2023/06/27 13:27:43;;;;;;;5.93;2.40;;;;;;;;;;10522178;28;20039;-75
2023/06/27 13:32:47;;;;;;;3.45;2.20;;;;;;;;;;10528955;28;20051;-74
2023/06/27 13:37:50;;;;;;;7.13;2.30;;;;;;;;;;10526570;28;20044;-75
2023/06/27 13:43:03;;;;;;;4.63;2.42;;;;;;;;;;10525731;28;20040;-76
2023/06/27 13:48:08;;;;;;;4.47;2.10;;;;;;;;;;10521461;28;20510;-76
2023/06/27 13:53:10;;;;;;;4.60;2.10;;;;;;;;;;10525333;28;20040;-75
2023/06/27 13:58:13;;;;;;;4.35;2.13;;;;;;;;;;10520632;28;20516;-75
2023/06/27 14:03:21;;;;;;;3.85;2.03;;;;;;;;;;10528271;28;20489;-76
2023/06/27 14:08:24;;;;;;;3.53;2.17;;;;;;;;;;10521995;28;20069;-76
2023/06/27 14:13:27;;;;;;;5.03;2.13;;;;;;;;;;10519905;28;20040;-77
2023/06/27 14:18:31;;;;;;;3.67;1.90;;;;;;;;;;10517402;28;20051;-77
2023/06/27 14:23:34;;;;;;;3.92;1.80;;;;;;;;;;10518818;28;20048;-77
2023/06/27 14:28:36;;;;;;;4.38;2.40;;;;;;;;;;10511630;28;20032;-77
2023/06/27 14:33:41;;;;;;;5.00;1.90;;;;;;;;;;10520593;28;20050;-78
2023/06/27 14:38:44;;;;;;;6.15;2.20;;;;;;;;;;10525028;28;20056;-77
2023/06/27 14:43:47;;;;;;;5.40;2.03;;;;;;;;;;10526324;28;20055;-75
2023/06/27 14:48:53;;;;;;;6.53;2.17;;;;;;;;;;10528991;28;20082;-76
2023/06/27 14:53:56;;;;;;;6.93;2.10;;;;;;;;;;10521406;28;20097;-76
2023/06/27 14:58:59;;;;;;;3.72;2.55;;;;;;;;;;10525311;28;20492;-76
2023/06/27 15:04:04;;;;;;;5.90;2.25;;;;;;;;;;10521641;28;20056;-76
2023/06/27 15:09:06;;;;;;;5.25;2.10;;;;;;;;;;10519726;28;20048;-76
2023/06/27 15:14:10;;;;;;;5.97;2.20;;;;;;;;;;10514378;28;20048;-76
2023/06/27 15:19:15;;;;;;;7.60;2.03;;;;;;;;;;10516763;28;20052;-76
2023/06/27 15:24:18;;;;;;;3.70;2.05;;;;;;;;;;10514192;28;20078;-76
2023/06/27 15:29:20;;;;;;;8.10;2.47;;;;;;;;;;10513586;28;20692;-76
2023/06/27 15:34:25;;;;;;;8.30;2.25;;;;;;;;;;10517790;28;20036;-75
2023/06/27 15:39:28;;;;;;;6.75;2.08;;;;;;;;;;10513708;28;20048;-75
2023/06/27 15:44:31;;;;;;;6.05;3.30;;;;;;;;;;10511974;28;20070;-75
2023/06/27 15:49:35;;;;;;;5.32;2.00;;;;;;;;;;10522529;28;20065;-74
2023/06/27 15:54:38;;;;;;;2.78;2.05;;;;;;;;;;10523219;28;20050;-76
2023/06/27 15:59:40;;;;;;;4.22;2.03;;;;;;;;;;10512456;28;20036;-76
2023/06/27 16:04:44;;;;;;;5.65;2.22;;;;;;;;;;10515553;28;20449;-76
2023/06/27 16:09:48;;;;;;;4.35;1.80;;;;;;;;;;10509794;28;20044;-80
2023/06/27 16:14:51;;;;;;;4.10;1.98;;;;;;;;;;10515347;28;20044;-75
2023/06/27 16:19:58;;;;;;;13.05;5.88;;;;;;;;;;10517202;28;20113;-76
2023/06/27 16:25:02;;;;;;;10.00;3.50;;;;;;;;;;10524764;28;20047;-77
2023/06/27 16:30:05;;;;;;;5.70;3.63;;;;;;;;;;10526414;28;20050;-77
2023/06/27 16:35:10;;;;;;;4.38;1.90;;;;;;;;;;10523836;28;20472;-77
2023/06/27 16:40:13;;;;;;;5.85;2.15;;;;;;;;;;10528747;28;20130;-77
2023/06/27 16:45:15;;;;;;;7.25;2.20;;;;;;;;;;10526158;28;20413;-77
2023/06/27 16:50:22;;;;;;;6.18;2.10;;;;;;;;;;10522818;28;20127;-77
2023/06/27 16:55:25;;;;;;;7.72;2.30;;;;;;;;;;10518766;28;20493;-75
2023/06/27 17:00:28;;;;;;;4.88;2.13;;;;;;;;;;10518756;28;20044;-76
2023/06/27 17:05:31;;;;;;;;;;;;;;;;;;10519833;28;20040;-76
2023/06/27 17:10:35;;;;;;;6.38;2.10;;;;;;;;;;10520947;28;20018;-77
2023/06/27 17:15:38;;;;;;;3.70;1.98;;;;;;;;;;10519242;28;20028;-78
2023/06/27 17:20:41;;;;;;;4.35;2.00;;;;;;;;;;10531888;28;20051;-76
2023/06/27 17:25:45;;;;;;;5.10;2.08;;;;;;;;;;10524465;28;20093;-76
2023/06/27 17:30:48;;;;;;;5.13;2.10;;;;;;;;;;10513892;28;20105;-77
2023/06/27 17:35:50;;;;;;;;;;;;;;;;;;10525140;28;20093;-77
2023/06/27 17:40:54;;;;;;;4.40;2.00;;;;;;;;;;10531081;28;20005;-76
2023/06/27 17:45:57;;;;;;;7.47;2.17;;;;;;;;;;10504157;28;20397;-76
2023/06/27 17:51:01;;;;;;;5.22;2.00;;;;;;;;;;10524332;28;20692;-76
2023/06/27 17:56:05;;;;;;;7.72;4.15;;;;;;;;;;10524786;28;20638;-77
2023/06/27 18:01:07;;;;;;;9.13;3.72;;;;;;;;;;10525698;28;20043;-77
2023/06/27 18:06:10;;;;;;;5.53;2.20;;;;;;;;;;10525535;28;20553;-76
2023/06/27 18:11:14;;;;;;;5.93;2.20;;;;;;;;;;10523497;28;20504;-76
2023/06/27 18:16:17;;;;;;;3.42;2.17;;;;;;;;;;10523157;28;21954;-76
2023/06/27 18:21:20;;;;;;;6.47;1.98;;;;;;;;;;10525096;28;20070;-74
2023/06/27 18:26:28;;;;;;;5.65;2.17;;;;;;;;;;10529180;28;20062;-75
2023/06/27 18:31:31;;;;;;;6.95;2.80;;;;;;;;;;10522552;28;20039;-76
2023/06/27 18:36:37;;;;;;;5.03;2.08;;;;;;;;;;10524150;28;20057;-76
2023/06/27 18:41:41;;;;;;;5.82;1.98;;;;;;;;;;10520249;28;20040;-75
2023/06/27 18:46:44;;;;;;;4.60;2.20;;;;;;;;;;10517495;28;20123;-76
2023/06/27 18:51:46;;;;;;;7.18;2.35;;;;;;;;;;10516593;28;20070;-77
2023/06/27 18:56:51;;;;;;;8.07;2.50;;;;;;;;;;10523500;28;20044;-77
2023/06/27 19:01:54;;;;;;;5.40;1.83;;;;;;;;;;10527532;28;20074;-77
2023/06/27 19:06:57;;;;;;;6.20;2.70;;;;;;;;;;10526815;28;20043;-77
2023/06/27 19:12:01;;;;;;;7.70;2.70;;;;;;;;;;10520751;28;20067;-77
2023/06/27 19:17:04;;;;;;;6.50;2.45;;;;;;;;;;10526499;28;20089;-75
2023/06/27 19:22:07;;;;;;;4.32;2.15;;;;;;;;;;10521498;28;20036;-75
2023/06/27 19:27:16;;;;;;;3.55;1.75;;;;;;;;;;10523953;28;20067;-76
2023/06/27 19:32:18;;;;;;;4.13;1.70;;;;;;;;;;10517753;28;20063;-74
2023/06/27 19:37:21;;;;;;;5.63;2.30;;;;;;;;;;10521711;28;20044;-76
2023/06/27 19:42:25;;;;;;;10.65;4.57;;;;;;;;;;10520693;28;20120;-76
2023/06/27 19:47:29;;;;;;;6.28;2.15;;;;;;;;;;10527322;28;20127;-77
2023/06/27 19:52:32;;;;;;;4.75;2.38;;;;;;;;;;10512177;28;20044;-77
2023/06/27 19:57:35;;;;;;;3.97;2.30;;;;;;;;;;10532624;28;20029;-76
2023/06/27 20:02:38;;;;;;;9.88;3.15;;;;;;;;;;10537556;28;20047;-76
2023/06/27 20:07:41;;;;;;;7.88;2.70;;;;;;;;;;10536044;28;20188;-75
2023/06/27 20:12:47;;;;;;;6.85;3.65;;;;;;;;;;10538352;28;20509;-82
2023/06/27 20:17:56;;;;;;;6.57;2.35;;;;;;;;;;10531451;28;20079;-83
2023/06/27 20:23:00;;;;;;;4.65;1.70;;;;;;;;;;10525298;28;20048;-79
2023/06/27 20:28:03;;;;;;;;;;;;;;;;;;10528886;28;20039;-83
2023/06/27 20:33:07;;;;;;;10.97;4.37;;;;;;;;;;10538137;28;19920;-83
2023/06/27 20:38:10;;;;;;;10.80;3.47;;;;;;;;;;10542250;27;20063;-82
2023/06/27 20:43:14;;;;;;;8.98;3.30;;;;;;;;;;10525020;28;20097;-84
2023/06/27 20:48:19;;;;;;;7.95;3.28;;;;;;;;;;10532754;28;20044;-83
2023/06/27 20:53:23;;;;;;;4.45;2.10;;;;;;;;;;10533879;28;20064;-85
2023/06/27 20:58:30;;;;;;;7.88;2.53;;;;;;;;;;10528772;28;20129;-82
2023/06/27 21:03:34;;;;;;;11.95;2.08;;;;;;;;;;10530231;28;20105;-82
2023/06/27 21:08:39;;;;;;;3.40;1.95;;;;;;;;;;10527909;28;20036;-84
2023/06/27 21:13:43;;;;;;;3.28;1.90;;;;;;;;;;10529028;28;20048;-82
2023/06/27 21:18:49;;;;;;;4.13;1.95;;;;;;;;;;10523278;28;20075;-84
2023/06/27 21:23:52;;;;;;;6.78;1.98;;;;;;;;;;10526496;28;20044;-82
2023/06/27 21:28:55;;;;;;;4.75;2.00;;;;;;;;;;10524315;28;20043;-82
2023/06/27 21:34:05;;;;;;;4.38;2.03;;;;;;;;;;10518138;28;20040;-82
2023/06/27 21:39:10;;;;;;;8.68;2.40;;;;;;;;;;10516786;28;20040;-83
2023/06/27 21:44:16;;;;;;;6.72;2.20;;;;;;;;;;10530028;28;20052;-83
2023/06/27 21:49:30;;;;;;;3.78;2.10;;;;;;;;;;10535337;28;20040;-83
2023/06/27 21:54:35;;;;;;;4.78;2.20;;;;;;;;;;10530682;28;20082;-83
2023/06/27 21:59:40;;;;;;;5.38;2.08;;;;;;;;;;10525907;28;20051;-82
2023/06/27 22:04:49;;;;;;;5.50;2.20;;;;;;;;;;10522308;28;20048;-82
2023/06/27 22:09:53;;;;;;;6.60;2.25;;;;;;;;;;10506385;28;20043;-80
2023/06/27 22:14:56;;;;;;;4.50;2.15;;;;;;;;;;10525118;28;20036;-81
2023/06/27 22:20:03;;;;;;;4.68;2.00;;;;;;;;;;10518898;28;20478;-81
2023/06/27 22:25:12;;;;;;;4.43;2.10;;;;;;;;;;10506202;28;20450;-80
2023/06/27 22:30:16;;;;;;;4.18;2.20;;;;;;;;;;10509694;28;20516;-82
2023/06/27 22:35:24;;;;;;;5.28;2.47;;;;;;;;;;10500662;28;20036;-84
2023/06/27 22:40:31;;;;;;;4.90;2.25;;;;;;;;;;10526610;28;20098;-84
2023/06/27 22:45:46;;;;;;;5.80;2.17;;;;;;;;;;10537131;28;20050;-82
2023/06/27 22:50:58;;;;;;;4.38;2.40;;;;;;;;;;10532823;28;20474;-83
2023/06/27 22:56:02;;;;;;;5.32;2.10;;;;;;;;;;10531693;28;20118;-82
2023/06/27 23:01:09;;;;;;;3.83;2.10;;;;;;;;;;10528111;28;20158;-86
2023/06/27 23:06:15;;;;;;;4.60;2.10;;;;;;;;;;10506806;28;20066;-84
2023/06/27 23:11:24;;;;;;;6.25;2.03;;;;;;;;;;10525664;28;20040;-85
2023/06/27 23:16:32;;;;;;;5.82;2.22;;;;;;;;;;10525764;28;20413;-84
2023/06/27 23:21:46;;;;;;;6.45;2.10;;;;;;;;;;10526140;28;20040;-84
2023/06/27 23:26:51;;;;;;;4.15;2.00;;;;;;;;;;10535069;28;20048;-85
2023/06/27 23:32:00;;;;;;;9.23;2.22;;;;;;;;;;10533947;28;20497;-84
2023/06/27 23:37:09;;;;;;;4.88;2.70;;;;;;;;;;10539235;28;20091;-83
2023/06/27 23:42:26;;;;;;;5.80;2.50;;;;;;;;;;10522652;28;20045;-82
2023/06/27 23:47:35;;;;;;;6.35;2.35;;;;;;;;;;10516498;28;20039;-82
2023/06/27 23:53:10;;;;;;;8.05;2.30;;;;;;;;;;10526594;28;20100;-81
2023/06/27 23:58:17;;;;;;;7.05;2.55;;;;;;;;;;10524010;28;20154;-81
